Time;durP1;ratioP1;P1;durP2;ratioP2;P2;SDS_P1;SDS_P2;PMS_P1;PMS_P2;Temp;Humidity;BMP_temperature;BMP_pressure;BME280_temperature;BME280_humidity;BME280_pressure;Samples;Min_cycle;Max_cycle;Signal;HPM_P1;HPM_P2
2024/02/29 00:02:16;;;;;;;33.33;18.65;;;2.30;99.90;;;;;;5027634;28;20052;-45
2024/02/29 00:04:43;;;;;;;32.83;18.88;;;2.30;99.90;;;;;;5029501;28;20525;-43
2024/02/29 00:07:10;;;;;;;31.88;18.52;;;2.30;99.90;;;;;;5035940;28;20412;-45
2024/02/29 00:09:38;;;;;;;33.60;18.65;;;2.30;99.90;;;;;;5031602;28;20049;-44
2024/02/29 00:12:06;;;;;;;33.05;19.00;;;2.30;99.90;;;;;;5031147;28;20048;-44
2024/02/29 00:14:33;;;;;;;31.38;18.13;;;2.20;99.90;;;;;;5032154;28;20064;-46
2024/02/29 00:17:00;;;;;;;32.25;18.88;;;2.20;99.90;;;;;;5034860;28;20469;-51
2024/02/29 00:19:28;;;;;;;35.20;19.73;;;2.10;99.90;;;;;;5032992;28;20045;-47
2024/02/29 00:21:55;;;;;;;35.42;19.13;;;2.10;99.90;;;;;;5031952;28;20128;-48
2024/02/29 00:24:22;;;;;;;33.65;18.52;;;2.00;99.90;;;;;;5031778;28;20053;-47
2024/02/29 00:26:49;;;;;;;37.13;19.15;;;2.00;99.90;;;;;;5033356;28;20064;-46
2024/02/29 00:29:17;;;;;;;34.35;18.95;;;2.00;99.90;;;;;;5031393;28;20061;-46
2024/02/29 00:31:44;;;;;;;33.58;18.90;;;2.00;99.90;;;;;;5031243;28;20056;-44
2024/02/29 00:34:12;;;;;;;35.05;19.10;;;2.00;99.90;;;;;;5031682;28;20139;-45
2024/02/29 00:36:39;;;;;;;33.60;18.50;;;2.00;99.90;;;;;;5031351;28;20052;-43
2024/02/29 00:39:07;;;;;;;35.70;18.70;;;2.00;99.90;;;;;;5032281;28;20099;-42
2024/02/29 00:41:41;;;;;;;34.28;18.67;;;2.00;99.90;;;;;;5032551;28;20423;-46
2024/02/29 00:44:07;;;;;;;36.33;19.15;;;2.00;99.90;;;;;;5027555;28;20033;-46
2024/02/29 00:46:37;;;;;;;33.58;18.00;;;2.00;99.90;;;;;;5032691;28;20069;-48
2024/02/29 00:49:04;;;;;;;33.00;18.92;;;2.00;99.90;;;;;;5032214;28;20045;-45
2024/02/29 00:51:31;;;;;;;35.05;19.35;;;2.10;99.90;;;;;;5030648;28;20050;-44
2024/02/29 00:53:59;;;;;;;29.23;17.20;;;2.10;99.90;;;;;;5037208;28;20041;-46
2024/02/29 00:56:25;;;;;;;36.97;19.83;;;2.20;99.90;;;;;;5034150;28;20030;-49
2024/02/29 00:58:52;;;;;;;32.75;18.10;;;2.20;99.90;;;;;;5034889;28;20426;-45
2024/02/29 01:01:19;;;;;;;35.55;18.75;;;2.30;99.90;;;;;;5018384;28;20057;-49
2024/02/29 01:03:46;;;;;;;34.55;19.25;;;2.30;99.90;;;;;;5035997;28;20033;-46
2024/02/29 01:06:13;;;;;;;34.05;19.38;;;2.30;99.90;;;;;;5036053;28;20042;-45
2024/02/29 01:08:40;;;;;;;36.92;19.85;;;2.30;99.90;;;;;;5037342;28;20131;-44
2024/02/29 01:11:07;;;;;;;32.95;17.60;;;2.40;99.90;;;;;;5033554;28;20080;-44
2024/02/29 01:13:35;;;;;;;34.30;19.48;;;2.40;99.90;;;;;;5033544;28;20069;-47
2024/02/29 01:16:01;;;;;;;32.80;18.95;;;2.40;99.90;;;;;;5040122;28;20072;-47
2024/02/29 01:18:28;;;;;;;38.38;20.10;;;2.50;99.90;;;;;;5032622;28;20099;-47
2024/02/29 01:20:55;;;;;;;32.53;18.80;;;2.60;99.90;;;;;;5031620;28;20079;-46
2024/02/29 01:23:22;;;;;;;36.05;19.60;;;2.70;99.90;;;;;;5030912;28;20088;-44
2024/02/29 01:25:49;;;;;;;35.42;20.63;;;2.80;99.90;;;;;;5029043;28;20033;-44
2024/02/29 01:28:16;;;;;;;33.83;19.05;;;2.90;99.90;;;;;;5030458;28;20121;-43
2024/02/29 01:30:43;;;;;;;40.15;20.90;;;3.00;99.90;;;;;;5030701;28;20442;-41
2024/02/29 01:33:10;;;;;;;34.83;19.83;;;3.00;99.90;;;;;;5030599;28;20042;-45
2024/02/29 01:35:37;;;;;;;32.10;18.45;;;3.10;99.90;;;;;;5029910;28;20053;-47
2024/02/29 01:38:04;;;;;;;36.67;19.10;;;3.20;99.90;;;;;;5030804;28;20053;-45
2024/02/29 01:40:32;;;;;;;31.00;17.52;;;3.30;99.90;;;;;;5030785;28;20053;-48
2024/02/29 01:42:58;;;;;;;31.15;18.23;;;3.30;99.90;;;;;;5031081;28;20107;-47
2024/02/29 01:45:25;;;;;;;33.60;18.52;;;3.40;99.90;;;;;;5030471;28;20113;-48
2024/02/29 01:47:52;;;;;;;33.80;19.08;;;3.40;99.90;;;;;;5032487;28;20127;-41
2024/02/29 01:50:20;;;;;;;36.00;18.30;;;3.50;99.90;;;;;;5033416;28;20041;-47
2024/02/29 01:52:48;;;;;;;32.88;18.40;;;3.50;99.90;;;;;;5039915;28;20095;-47
2024/02/29 01:55:15;;;;;;;28.42;16.92;;;3.50;99.90;;;;;;5034276;28;20052;-46
2024/02/29 01:57:42;;;;;;;33.47;17.63;;;3.60;99.90;;;;;;5013430;28;20061;-48
2024/02/29 02:00:10;;;;;;;33.38;18.45;;;3.60;99.90;;;;;;5013092;28;20049;-47
2024/02/29 02:02:38;;;;;;;30.70;17.95;;;3.60;99.90;;;;;;5029650;28;20046;-50
2024/02/29 02:05:07;;;;;;;29.60;17.23;;;3.60;99.90;;;;;;5029977;28;20045;-44
2024/02/29 02:07:39;;;;;;;30.45;18.40;;;3.60;99.90;;;;;;5037179;28;20104;-48
2024/02/29 02:10:07;;;;;;;31.20;17.48;;;3.60;99.90;;;;;;5039472;28;20045;-46
2024/02/29 02:12:35;;;;;;;29.23;17.67;;;3.70;99.90;;;;;;5033454;28;20059;-46
2024/02/29 02:15:02;;;;;;;29.05;17.35;;;3.70;99.90;;;;;;5039886;28;20052;-44
2024/02/29 02:17:32;;;;;;;30.85;17.15;;;3.70;99.90;;;;;;5033560;28;20108;-43
2024/02/29 02:20:00;;;;;;;29.65;17.48;;;3.70;99.90;;;;;;5033877;28;20057;-45
2024/02/29 02:22:28;;;;;;;30.52;18.98;;;3.70;99.90;;;;;;5033731;28;20095;-43
2024/02/29 02:24:56;;;;;;;32.22;19.02;;;3.80;99.90;;;;;;5033275;28;20418;-44
2024/02/29 02:27:23;;;;;;;34.28;17.80;;;3.80;99.90;;;;;;5031645;28;20059;-43
2024/02/29 02:29:50;;;;;;;31.45;17.48;;;3.80;99.90;;;;;;5028040;28;20041;-42
2024/02/29 02:32:17;;;;;;;27.42;16.73;;;3.80;99.90;;;;;;5036948;28;20057;-43
2024/02/29 02:34:44;;;;;;;28.77;17.35;;;3.80;99.90;;;;;;5032671;28;20481;-44
2024/02/29 02:37:11;;;;;;;30.45;17.90;;;3.80;99.90;;;;;;5033956;28;20124;-46
2024/02/29 02:39:38;;;;;;;30.95;18.08;;;3.80;99.90;;;;;;5026965;28;20136;-47
2024/02/29 02:42:05;;;;;;;28.98;17.52;;;3.80;99.90;;;;;;5037964;28;20041;-45
2024/02/29 02:44:32;;;;;;;28.92;16.48;;;3.80;99.90;;;;;;5038075;28;20053;-46
2024/02/29 02:46:59;;;;;;;33.60;19.35;;;3.90;99.90;;;;;;5040695;28;20044;-49
2024/02/29 02:49:26;;;;;;;33.03;18.88;;;3.90;99.90;;;;;;5016211;28;20457;-44
2024/02/29 02:51:53;;;;;;;27.33;16.02;;;3.90;99.90;;;;;;5032857;28;20473;-45
2024/02/29 02:54:20;;;;;;;31.83;17.48;;;3.90;99.90;;;;;;5018091;28;20048;-44
2024/02/29 02:56:46;;;;;;;30.45;17.88;;;3.90;99.90;;;;;;5036144;28;20101;-43
2024/02/29 02:59:13;;;;;;;30.73;16.35;;;3.90;99.90;;;;;;5039780;28;20045;-44
2024/02/29 03:01:40;;;;;;;30.10;17.77;;;3.90;99.90;;;;;;5033385;28;20483;-47
2024/02/29 03:04:07;;;;;;;31.25;17.52;;;4.00;99.90;;;;;;5034191;28;20052;-46
2024/02/29 03:06:34;;;;;;;28.25;17.20;;;4.10;99.90;;;;;;5038592;28;20128;-45
2024/02/29 03:09:01;;;;;;;29.48;17.83;;;4.20;99.90;;;;;;5039073;28;20072;-50
2024/02/29 03:11:28;;;;;;;31.25;17.58;;;4.20;99.90;;;;;;5035527;28;20049;-45
2024/02/29 03:13:55;;;;;;;29.58;17.13;;;4.30;99.90;;;;;;5037925;28;20310;-46
2024/02/29 03:16:23;;;;;;;31.42;17.90;;;4.30;99.90;;;;;;5016118;28;20107;-47
2024/02/29 03:18:50;;;;;;;29.23;16.88;;;4.40;99.90;;;;;;5033723;28;20042;-48
2024/02/29 03:21:18;;;;;;;28.95;17.70;;;4.40;99.90;;;;;;5036704;28;20338;-44
2024/02/29 03:23:44;;;;;;;28.50;18.27;;;4.50;99.90;;;;;;5035642;28;20049;-46
2024/02/29 03:26:11;;;;;;;28.13;16.88;;;4.60;99.90;;;;;;5032473;28;20046;-42
2024/02/29 03:28:39;;;;;;;29.80;16.33;;;4.60;99.90;;;;;;5037184;28;20069;-45
2024/02/29 03:31:11;;;;;;;28.30;18.00;;;4.70;99.90;;;;;;5035051;28;20110;-44
2024/02/29 03:33:38;;;;;;;27.80;17.08;;;4.70;99.90;;;;;;5032586;28;20512;-45
2024/02/29 03:36:05;;;;;;;27.30;16.42;;;4.70;99.90;;;;;;5031634;28;20038;-47
2024/02/29 03:38:32;;;;;;;28.08;17.60;;;4.70;99.90;;;;;;5035953;28;20043;-46
2024/02/29 03:40:58;;;;;;;30.75;17.38;;;4.70;99.90;;;;;;5038591;28;20124;-48
2024/02/29 03:43:25;;;;;;;29.33;16.98;;;4.80;99.90;;;;;;5038000;28;20109;-42
2024/02/29 03:45:52;;;;;;;30.90;17.73;;;4.80;99.90;;;;;;5034628;28;20080;-44
2024/02/29 03:48:19;;;;;;;28.20;16.23;;;4.80;99.90;;;;;;5032307;28;20124;-44
2024/02/29 03:50:46;;;;;;;28.63;16.80;;;4.80;99.90;;;;;;5032435;28;20128;-44
2024/02/29 03:53:13;;;;;;;25.85;15.95;;;4.90;99.90;;;;;;5031588;28;20053;-50
2024/02/29 03:55:42;;;;;;;28.30;17.73;;;4.90;99.90;;;;;;5031948;28;20458;-45
2024/02/29 03:58:09;;;;;;;30.95;17.92;;;4.90;99.90;;;;;;5028572;28;20045;-46
2024/02/29 04:00:36;;;;;;;31.92;17.40;;;4.90;99.90;;;;;;5030695;28;20181;-44
2024/02/29 04:03:03;;;;;;;27.80;16.05;;;4.90;99.90;;;;;;5030828;28;20061;-44
2024/02/29 04:05:30;;;;;;;30.45;17.77;;;4.80;99.90;;;;;;5029826;28;20121;-44
2024/02/29 04:08:03;;;;;;;31.13;17.98;;;4.80;99.90;;;;;;5031877;28;20502;-46
2024/02/29 04:10:30;;;;;;;27.67;17.02;;;4.80;99.90;;;;;;5030685;28;20135;-45
2024/02/29 04:12:58;;;;;;;30.88;17.63;;;4.70;99.90;;;;;;5029418;28;20041;-44
2024/02/29 04:15:25;;;;;;;30.30;16.58;;;4.70;99.90;;;;;;5034006;28;20489;-42
2024/02/29 04:17:52;;;;;;;27.85;16.63;;;4.70;99.90;;;;;;5030395;28;20091;-45
2024/02/29 04:20:19;;;;;;;27.50;16.65;;;4.70;99.90;;;;;;5030864;28;20052;-46
2024/02/29 04:22:46;;;;;;;29.02;17.90;;;4.70;99.90;;;;;;5030186;28;20038;-44
2024/02/29 04:25:15;;;;;;;29.85;16.98;;;4.70;99.90;;;;;;5031568;28;20330;-41
2024/02/29 04:27:42;;;;;;;30.83;17.50;;;4.70;99.90;;;;;;5028311;28;20076;-48
2024/02/29 04:30:09;;;;;;;35.90;18.63;;;4.70;99.90;;;;;;5030120;28;20026;-42
2024/02/29 04:32:38;;;;;;;29.80;18.35;;;4.70;99.90;;;;;;5031069;28;20133;-48
2024/02/29 04:35:05;;;;;;;34.30;17.98;;;4.70;99.90;;;;;;5030666;28;20135;-46
2024/02/29 04:37:32;;;;;;;29.55;17.27;;;4.70;99.90;;;;;;5031404;28;20053;-46
2024/02/29 04:39:59;;;;;;;33.50;17.77;;;4.80;99.90;;;;;;5031641;28;20128;-45
2024/02/29 04:42:26;;;;;;;30.52;18.33;;;4.70;99.90;;;;;;5032059;28;20045;-47
2024/02/29 04:44:53;;;;;;;32.33;17.58;;;4.80;99.90;;;;;;5032690;28;20037;-46
2024/02/29 04:47:20;;;;;;;31.95;18.17;;;4.70;99.90;;;;;;5038217;28;20072;-47
2024/02/29 04:49:47;;;;;;;29.38;18.00;;;4.80;99.90;;;;;;5038559;28;20025;-49
2024/02/29 04:52:14;;;;;;;33.72;18.38;;;4.80;99.90;;;;;;5037694;28;20317;-46
2024/02/29 04:54:41;;;;;;;31.52;18.48;;;4.80;99.90;;;;;;5035491;28;20490;-42
2024/02/29 04:57:08;;;;;;;29.95;17.92;;;4.80;99.90;;;;;;5031287;28;20038;-43
2024/02/29 04:59:36;;;;;;;28.45;17.60;;;4.80;99.90;;;;;;5032928;28;20152;-45
2024/02/29 05:02:03;;;;;;;34.00;19.52;;;4.80;99.90;;;;;;5032353;28;20130;-46
2024/02/29 05:04:33;;;;;;;32.03;19.02;;;4.80;99.90;;;;;;5031378;28;20049;-52
2024/02/29 05:07:00;;;;;;;39.05;20.20;;;4.80;99.90;;;;;;5038861;28;20057;-46
2024/02/29 05:09:27;;;;;;;34.40;18.95;;;4.80;99.90;;;;;;5036782;28;20407;-45
2024/02/29 05:11:54;;;;;;;34.70;19.73;;;4.80;99.90;;;;;;5031176;28;20379;-46
2024/02/29 05:14:21;;;;;;;30.38;17.88;;;4.90;99.90;;;;;;5028260;28;20037;-44
2024/02/29 05:16:48;;;;;;;31.75;17.88;;;4.90;99.90;;;;;;5031289;28;20124;-45
2024/02/29 05:19:15;;;;;;;34.60;20.20;;;4.90;99.90;;;;;;5031518;28;20512;-45
2024/02/29 05:21:44;;;;;;;41.72;20.65;;;4.90;99.90;;;;;;5031500;28;20053;-47
2024/02/29 05:24:12;;;;;;;37.58;21.13;;;4.90;99.90;;;;;;5029666;28;20056;-48
2024/02/29 05:26:39;;;;;;;35.78;20.27;;;4.90;99.90;;;;;;5028624;28;20075;-45
2024/02/29 05:29:06;;;;;;;36.13;20.38;;;4.90;99.90;;;;;;5028107;28;20070;-45
2024/02/29 05:31:33;;;;;;;39.40;22.42;;;5.00;99.90;;;;;;5030110;28;20044;-42
2024/02/29 05:34:00;;;;;;;38.88;21.20;;;5.00;99.90;;;;;;5030675;28;20129;-47
2024/02/29 05:36:27;;;;;;;40.97;21.67;;;5.00;99.90;;;;;;5030917;28;20042;-42
2024/02/29 05:38:54;;;;;;;40.83;22.38;;;5.00;99.90;;;;;;5032489;28;20046;-49
2024/02/29 05:41:21;;;;;;;36.83;20.50;;;5.00;99.90;;;;;;5030419;28;20177;-45
2024/02/29 05:43:48;;;;;;;35.83;21.25;;;5.00;99.90;;;;;;5035310;28;20059;-46
2024/02/29 05:46:15;;;;;;;34.90;19.40;;;5.00;99.90;;;;;;5017135;28;20034;-47
2024/02/29 05:48:42;;;;;;;34.55;20.77;;;5.10;99.90;;;;;;5035302;28;20107;-49
2024/02/29 05:51:11;;;;;;;33.90;20.05;;;5.10;99.90;;;;;;5031108;28;20497;-46
2024/02/29 05:53:38;;;;;;;34.92;21.02;;;5.20;99.90;;;;;;5033212;28;20061;-42
2024/02/29 05:56:05;;;;;;;34.35;19.23;;;5.20;99.90;;;;;;5032859;28;20491;-41
2024/02/29 05:58:32;;;;;;;35.35;19.58;;;5.30;99.90;;;;;;5033972;28;20179;-46
2024/02/29 06:00:59;;;;;;;32.30;19.05;;;5.30;99.90;;;;;;5032860;28;20372;-48
2024/02/29 06:03:26;;;;;;;34.72;20.25;;;5.30;99.90;;;;;;5033753;28;20045;-47
2024/02/29 06:05:53;;;;;;;33.85;19.55;;;5.40;99.90;;;;;;5030587;28;20056;-50
2024/02/29 06:08:20;;;;;;;34.40;19.20;;;5.50;99.90;;;;;;5034103;28;20049;-44
2024/02/29 06:10:47;;;;;;;28.60;18.33;;;5.50;99.90;;;;;;5035234;28;20038;-44
2024/02/29 06:13:14;;;;;;;32.50;19.13;;;5.60;99.90;;;;;;5034014;28;20120;-44
2024/02/29 06:15:41;;;;;;;28.83;17.85;;;5.60;99.90;;;;;;5041202;28;20076;-44
2024/02/29 06:18:10;;;;;;;30.23;18.20;;;5.70;99.90;;;;;;5040535;28;20120;-43
2024/02/29 06:20:37;;;;;;;30.27;17.67;;;5.70;99.90;;;;;;5036426;28;20150;-49
2024/02/29 06:23:05;;;;;;;32.47;18.95;;;5.70;99.90;;;;;;5034755;28;20045;-40
2024/02/29 06:25:32;;;;;;;30.50;17.88;;;5.70;99.90;;;;;;5033813;28;20069;-47
2024/02/29 06:27:58;;;;;;;30.45;18.10;;;5.80;99.90;;;;;;5032710;28;20037;-47
2024/02/29 06:30:31;;;;;;;31.50;19.55;;;5.80;99.90;;;;;;5034501;28;20064;-45
2024/02/29 06:32:59;;;;;;;35.20;19.50;;;5.90;99.90;;;;;;5030100;28;20034;-45
2024/02/29 06:35:27;;;;;;;34.05;20.10;;;5.90;99.90;;;;;;5032339;28;20053;-46
2024/02/29 06:37:54;;;;;;;35.97;19.40;;;5.90;99.90;;;;;;5029987;28;20034;-47
2024/02/29 06:40:23;;;;;;;28.52;18.67;;;6.00;99.90;;;;;;5032006;28;20037;-48
2024/02/29 06:42:50;;;;;;;31.13;18.85;;;6.10;99.90;;;;;;5026136;28;20079;-48
2024/02/29 06:45:18;;;;;;;31.25;18.67;;;6.10;99.90;;;;;;5028837;28;20501;-46
2024/02/29 06:47:44;;;;;;;34.08;19.88;;;6.10;99.90;;;;;;5026665;28;20068;-46
2024/02/29 06:50:12;;;;;;;31.13;19.85;;;6.10;99.90;;;;;;5028386;28;20502;-47
2024/02/29 06:52:39;;;;;;;32.70;20.05;;;6.10;99.90;;;;;;5033468;28;20065;-46
2024/02/29 06:55:09;;;;;;;36.15;20.23;;;6.20;99.90;;;;;;5037650;28;20505;-46
2024/02/29 06:57:37;;;;;;;31.35;19.40;;;6.20;99.90;;;;;;5035818;28;20049;-49
2024/02/29 07:00:05;;;;;;;31.17;19.38;;;6.20;99.90;;;;;;5036337;28;20422;-46
2024/02/29 07:02:33;;;;;;;33.30;20.40;;;6.30;99.90;;;;;;5039327;28;20041;-45
2024/02/29 07:05:00;;;;;;;29.90;18.58;;;6.30;99.90;;;;;;5037642;28;20124;-41
2024/02/29 07:07:27;;;;;;;34.72;19.42;;;6.30;99.90;;;;;;5037909;28;20106;-43
2024/02/29 07:09:54;;;;;;;30.40;18.90;;;6.40;99.90;;;;;;5027759;28;20062;-45
2024/02/29 07:12:21;;;;;;;33.00;19.73;;;6.50;99.90;;;;;;5036098;28;20565;-48
2024/02/29 07:14:49;;;;;;;34.03;20.98;;;6.50;99.90;;;;;;5032667;28;20091;-46
2024/02/29 07:17:16;;;;;;;29.75;19.33;;;6.50;99.90;;;;;;5035866;28;20041;-46
2024/02/29 07:19:43;;;;;;;31.83;19.38;;;6.60;99.90;;;;;;5033981;28;20049;-42
2024/02/29 07:22:11;;;;;;;28.58;17.70;;;6.70;99.90;;;;;;5036414;28;20095;-47
2024/02/29 07:24:38;;;;;;;33.15;18.30;;;6.70;99.90;;;;;;5031555;28;20053;-45
2024/02/29 07:27:05;;;;;;;29.50;17.60;;;6.80;99.90;;;;;;5034167;28;20049;-48
2024/02/29 07:29:32;;;;;;;31.95;18.08;;;6.80;99.90;;;;;;5035482;28;20046;-50
2024/02/29 07:31:58;;;;;;;36.70;21.40;;;6.90;99.90;;;;;;5034535;28;20115;-46
2024/02/29 07:34:25;;;;;;;29.83;17.55;;;7.00;99.90;;;;;;5032243;28;20192;-50
2024/02/29 07:36:52;;;;;;;24.83;16.05;;;7.10;99.90;;;;;;5032384;28;20083;-47
2024/02/29 07:39:19;;;;;;;28.70;17.48;;;7.10;99.90;;;;;;5031773;28;20214;-46
2024/02/29 07:41:47;;;;;;;27.38;17.73;;;7.10;99.90;;;;;;5030464;28;20092;-48
2024/02/29 07:44:14;;;;;;;28.67;17.65;;;7.20;99.90;;;;;;5031443;28;20049;-51
2024/02/29 07:46:41;;;;;;;26.48;17.25;;;7.20;99.90;;;;;;5031163;28;20451;-45
2024/02/29 07:49:08;;;;;;;27.02;16.85;;;7.20;99.90;;;;;;5030864;28;20042;-44
2024/02/29 07:51:35;;;;;;;30.20;18.33;;;7.20;99.90;;;;;;5029937;28;20041;-42
2024/02/29 07:54:02;;;;;;;28.60;17.42;;;7.30;99.90;;;;;;5025568;28;20062;-42
2024/02/29 07:56:29;;;;;;;27.88;18.13;;;7.40;99.90;;;;;;5029996;28;20491;-48
2024/02/29 07:58:56;;;;;;;33.28;19.58;;;7.50;99.90;;;;;;5031104;28;20088;-45
2024/02/29 08:01:23;;;;;;;27.60;17.83;;;7.50;99.90;;;;;;5031913;28;20038;-46
2024/02/29 08:03:50;;;;;;;27.25;17.30;;;7.50;99.90;;;;;;5032083;28;20115;-45
2024/02/29 08:06:17;;;;;;;28.50;18.13;;;7.70;99.90;;;;;;5032777;28;20469;-45
2024/02/29 08:08:44;;;;;;;28.23;18.17;;;7.70;99.90;;;;;;5033210;28;20507;-46
2024/02/29 08:11:11;;;;;;;29.58;18.25;;;7.90;99.90;;;;;;5033915;28;20044;-47
2024/02/29 08:13:38;;;;;;;30.27;18.90;;;7.80;99.90;;;;;;5032636;28;20398;-45
2024/02/29 08:16:06;;;;;;;33.42;21.67;;;7.90;99.90;;;;;;5036233;28;20068;-50
2024/02/29 08:18:33;;;;;;;29.88;18.42;;;8.10;99.90;;;;;;5033666;28;20151;-48
2024/02/29 08:21:00;;;;;;;33.38;19.92;;;8.10;99.90;;;;;;5035091;28;20537;-44
2024/02/29 08:23:27;;;;;;;30.73;19.90;;;8.10;99.90;;;;;;5036565;28;20033;-46
2024/02/29 08:25:54;;;;;;;26.45;18.33;;;8.20;99.90;;;;;;5033621;28;20046;-44
2024/02/29 08:28:21;;;;;;;31.85;19.83;;;8.30;99.90;;;;;;5031958;28;20049;-47
2024/02/29 08:30:48;;;;;;;30.67;21.02;;;8.40;99.90;;;;;;5032855;28;20045;-46
2024/02/29 08:33:15;;;;;;;30.63;19.40;;;8.60;99.90;;;;;;5035487;28;20045;-44
2024/02/29 08:35:42;;;;;;;29.63;19.33;;;8.70;99.90;;;;;;5031575;28;20124;-46
2024/02/29 08:38:09;;;;;;;30.55;19.40;;;8.70;99.90;;;;;;5031432;28;20099;-48
2024/02/29 08:40:36;;;;;;;44.25;25.25;;;8.80;99.90;;;;;;5030570;28;20172;-45
2024/02/29 08:43:03;;;;;;;38.80;23.63;;;8.80;99.90;;;;;;5029206;28;20041;-42
2024/02/29 08:45:30;;;;;;;32.58;21.65;;;9.10;99.90;;;;;;5032227;28;20508;-45
2024/02/29 08:47:57;;;;;;;35.28;21.48;;;9.20;99.90;;;;;;5032720;28;20332;-48
2024/02/29 08:50:24;;;;;;;31.25;20.08;;;9.30;99.90;;;;;;5027655;28;20053;-44
2024/02/29 08:52:51;;;;;;;30.77;18.85;;;9.40;99.90;;;;;;5024467;28;20049;-47
2024/02/29 08:55:19;;;;;;;27.58;18.70;;;9.50;99.90;;;;;;5028777;28;20045;-44
2024/02/29 08:57:47;;;;;;;27.92;18.98;;;9.50;99.90;;;;;;5031813;28;20046;-45
2024/02/29 09:00:16;;;;;;;28.80;18.80;;;9.50;99.90;;;;;;5032272;28;20038;-40
2024/02/29 09:02:44;;;;;;;30.08;18.98;;;9.60;99.90;;;;;;5028537;28;20084;-46
2024/02/29 09:05:11;;;;;;;25.95;16.83;;;9.70;99.90;;;;;;5032161;28;20053;-41
2024/02/29 09:07:38;;;;;;;30.48;19.02;;;9.80;99.90;;;;;;5030821;28;20057;-44
2024/02/29 09:10:06;;;;;;;30.95;19.42;;;9.70;99.90;;;;;;5030542;28;20114;-44
2024/02/29 09:12:34;;;;;;;27.23;18.80;;;9.80;99.90;;;;;;5029778;28;20403;-47
2024/02/29 09:15:02;;;;;;;28.70;18.25;;;9.90;99.90;;;;;;5033363;28;20295;-43
2024/02/29 09:17:29;;;;;;;28.48;17.52;;;10.00;99.90;;;;;;5030285;28;20041;-42
2024/02/29 09:19:56;;;;;;;29.63;19.35;;;10.10;99.90;;;;;;5030295;28;20045;-47
2024/02/29 09:22:23;;;;;;;26.45;18.10;;;10.10;99.90;;;;;;5028774;28;20262;-45
2024/02/29 09:24:50;;;;;;;28.20;18.60;;;10.20;99.90;;;;;;5031374;28;20072;-46
2024/02/29 09:27:17;;;;;;;29.17;18.42;;;10.30;99.90;;;;;;5031597;28;20046;-44
2024/02/29 09:29:44;;;;;;;25.13;18.85;;;10.50;99.90;;;;;;5032049;28;20100;-47
2024/02/29 09:32:11;;;;;;;28.45;18.83;;;10.50;99.90;;;;;;5031897;28;20060;-46
2024/02/29 09:34:39;;;;;;;26.15;18.30;;;10.50;99.90;;;;;;5029794;28;20407;-45
2024/02/29 09:37:12;;;;;;;28.75;19.02;;;10.80;99.90;;;;;;5030818;28;20048;-46
2024/02/29 09:39:38;;;;;;;31.13;19.63;;;11.10;99.90;;;;;;5027884;28;20109;-43
2024/02/29 09:42:06;;;;;;;27.80;17.70;;;11.20;99.90;;;;;;5030305;28;20041;-45
2024/02/29 09:44:42;;;;;;;29.08;19.80;;;11.20;99.90;;;;;;5028125;28;20414;-45
2024/02/29 09:47:13;;;;;;;27.45;18.33;;;11.50;99.90;;;;;;5029240;28;20045;-49
2024/02/29 09:49:40;;;;;;;27.70;18.52;;;11.70;99.90;;;;;;5032490;28;20034;-47
2024/02/29 09:52:09;;;;;;;28.17;19.60;;;11.70;99.90;;;;;;5033228;28;20053;-45
2024/02/29 09:54:39;;;;;;;27.88;19.15;;;11.40;99.90;;;;;;5031523;28;20049;-49
2024/02/29 09:57:09;;;;;;;31.02;20.17;;;11.60;99.90;;;;;;5032060;28;20045;-49
2024/02/29 09:59:42;;;;;;;27.52;18.15;;;11.60;99.90;;;;;;5030881;28;20281;-42
2024/02/29 10:02:15;;;;;;;24.10;16.05;;;11.70;99.90;;;;;;5030424;28;20495;-43
2024/02/29 10:04:43;;;;;;;28.42;18.85;;;11.20;99.90;;;;;;5029808;28;20075;-48
2024/02/29 10:07:10;;;;;;;24.90;16.23;;;11.30;99.90;;;;;;5030505;28;20051;-44
2024/02/29 10:09:37;;;;;;;28.50;19.45;;;11.30;99.90;;;;;;5027364;28;20054;-43
2024/02/29 10:12:04;;;;;;;27.65;18.67;;;11.40;99.90;;;;;;5028345;28;20042;-47
2024/02/29 10:14:32;;;;;;;25.27;17.65;;;11.50;99.90;;;;;;5028619;28;20410;-48
2024/02/29 10:16:59;;;;;;;31.55;19.17;;;11.50;99.90;;;;;;5023350;28;20045;-43
2024/02/29 10:19:26;;;;;;;29.52;19.02;;;11.70;99.90;;;;;;5027977;28;20072;-50
2024/02/29 10:21:53;;;;;;;28.33;19.08;;;12.00;99.90;;;;;;5029200;28;20140;-49
2024/02/29 10:24:22;;;;;;;28.42;19.50;;;12.20;99.90;;;;;;5028728;28;20276;-46
2024/02/29 10:26:49;;;;;;;37.42;24.40;;;12.40;99.90;;;;;;5029328;28;20075;-46
2024/02/29 10:29:16;;;;;;;30.60;18.55;;;12.70;99.90;;;;;;5032656;28;20103;-46
2024/02/29 10:31:44;;;;;;;29.25;19.77;;;12.50;99.90;;;;;;5032862;28;20415;-47
2024/02/29 10:34:12;;;;;;;27.23;18.67;;;12.10;99.90;;;;;;5034573;28;20128;-48
2024/02/29 10:36:40;;;;;;;27.85;17.85;;;12.30;99.90;;;;;;5036129;28;20084;-48
2024/02/29 10:39:08;;;;;;;24.40;17.10;;;12.60;99.90;;;;;;5032912;28;20552;-47
2024/02/29 10:41:40;;;;;;;23.73;16.83;;;12.70;99.90;;;;;;5034095;28;20045;-46
2024/02/29 10:44:09;;;;;;;37.13;23.05;;;12.20;99.90;;;;;;5032055;28;20049;-49
2024/02/29 10:46:39;;;;;;;27.75;19.35;;;12.20;99.90;;;;;;5032683;28;20071;-47
2024/02/29 10:49:15;;;;;;;30.52;18.80;;;12.40;99.90;;;;;;5032519;28;20045;-51
2024/02/29 10:51:54;;;;;;;27.08;18.48;;;12.60;99.90;;;;;;5032964;28;20426;-46
2024/02/29 10:54:33;;;;;;;24.65;15.38;;;12.80;99.90;;;;;;5032763;28;20037;-45
2024/02/29 10:57:04;;;;;;;24.20;17.38;;;13.10;99.90;;;;;;5028088;28;20124;-46
2024/02/29 10:59:31;;;;;;;23.95;17.42;;;13.20;99.90;;;;;;5030922;28;20069;-48
2024/02/29 11:02:00;;;;;;;25.52;17.90;;;13.20;99.90;;;;;;5030957;28;20079;-46
2024/02/29 11:04:27;;;;;;;26.58;17.30;;;13.20;99.90;;;;;;5032555;28;20156;-43
2024/02/29 11:06:55;;;;;;;24.00;17.75;;;13.20;99.90;;;;;;5031313;28;20069;-46
2024/02/29 11:09:24;;;;;;;26.27;17.40;;;12.90;99.90;;;;;;5031879;28;20110;-42
2024/02/29 11:12:27;;;;;;;22.70;15.82;;;13.20;99.90;;;;;;5031352;28;20056;-48
2024/02/29 11:14:58;;;;;;;23.92;16.70;;;13.50;99.90;;;;;;4989134;28;20497;-47
2024/02/29 11:17:30;;;;;;;26.27;16.80;;;13.70;99.90;;;;;;5009261;28;20434;-45
2024/02/29 11:19:59;;;;;;;22.48;15.32;;;13.80;99.90;;;;;;5028507;28;20110;-44
2024/02/29 11:22:33;;;;;;;20.75;15.25;;;13.70;99.90;;;;;;5031149;28;20422;-42
2024/02/29 11:25:11;;;;;;;23.95;16.27;;;13.90;99.90;;;;;;5027426;28;20414;-43
2024/02/29 11:27:46;;;;;;;24.60;16.42;;;13.90;99.90;;;;;;5030789;28;20049;-48
2024/02/29 11:30:18;;;;;;;23.48;16.48;;;13.90;99.90;;;;;;5032784;28;20044;-47
2024/02/29 11:32:44;;;;;;;20.10;14.67;;;13.80;99.90;;;;;;5032270;28;20072;-44
2024/02/29 11:35:14;;;;;;;23.98;16.15;;;13.60;99.90;;;;;;5034902;28;20538;-45
2024/02/29 11:37:43;;;;;;;23.30;16.10;;;13.70;99.90;;;;;;5036813;28;20135;-48
2024/02/29 11:40:17;;;;;;;22.17;15.82;;;13.70;99.90;;;;;;5029403;28;20046;-52
2024/02/29 11:42:44;;;;;;;21.48;15.32;;;13.40;99.90;;;;;;5027504;28;20280;-48
2024/02/29 11:45:21;;;;;;;23.83;15.82;;;13.10;99.90;;;;;;5029307;28;20557;-47
2024/02/29 11:47:49;;;;;;;21.77;16.48;;;13.00;99.90;;;;;;5031400;28;20107;-47
2024/02/29 11:50:17;;;;;;;21.88;16.27;;;13.30;99.90;;;;;;5032040;28;20143;-49
2024/02/29 11:52:44;;;;;;;22.98;16.25;;;13.20;99.90;;;;;;5033080;28;20045;-45
2024/02/29 11:55:12;;;;;;;23.75;16.63;;;13.10;99.90;;;;;;5034682;28;20050;-49
2024/02/29 11:57:41;;;;;;;23.25;16.80;;;13.10;99.90;;;;;;5032626;28;20490;-44
2024/02/29 12:00:08;;;;;;;27.25;18.58;;;13.20;99.90;;;;;;5032826;28;20037;-43
2024/02/29 12:02:37;;;;;;;26.52;16.90;;;13.30;99.90;;;;;;5027104;28;20291;-44
2024/02/29 12:05:05;;;;;;;23.98;16.85;;;13.50;99.90;;;;;;5028888;28;20064;-46
2024/02/29 12:07:32;;;;;;;21.80;15.35;;;13.50;99.90;;;;;;5031633;28;20046;-46
2024/02/29 12:10:01;;;;;;;23.73;16.73;;;13.60;99.90;;;;;;5032577;28;20124;-48
2024/02/29 12:12:43;;;;;;;22.70;15.57;;;13.60;99.90;;;;;;5029576;28;20314;-51
2024/02/29 12:15:12;;;;;;;23.33;16.63;;;13.80;99.90;;;;;;5032836;28;20053;-42
2024/02/29 12:17:39;;;;;;;21.45;16.30;;;13.80;99.90;;;;;;5031006;28;20111;-48
2024/02/29 12:20:09;;;;;;;24.10;16.83;;;13.80;99.90;;;;;;5033368;28;20068;-48
2024/02/29 12:22:36;;;;;;;23.30;16.80;;;13.80;99.90;;;;;;5031874;28;20049;-46
2024/02/29 12:25:13;;;;;;;21.80;15.63;;;13.90;99.90;;;;;;5031785;28;20153;-44
2024/02/29 12:27:41;;;;;;;22.83;16.50;;;14.10;99.90;;;;;;5028166;28;20053;-46
2024/02/29 12:30:14;;;;;;;23.17;16.23;;;14.30;99.90;;;;;;5032612;28;20506;-43
2024/02/29 12:32:43;;;;;;;21.75;16.15;;;14.40;99.90;;;;;;5029695;28;20041;-48
2024/02/29 12:35:12;;;;;;;20.05;14.57;;;14.50;99.90;;;;;;5027310;28;20106;-46
2024/02/29 12:37:40;;;;;;;21.05;14.98;;;14.40;99.90;;;;;;5029642;28;20062;-46